createdAt,value
2022-11-27T00:01:27.101Z,253.70
2022-11-27T00:03:55.965Z,372.30
2022-11-27T00:06:26.644Z,563.40
2022-11-27T00:08:59.726Z,337.50
2022-11-27T00:11:29.361Z,240.70
2022-11-27T00:13:57.442Z,542.70
2022-11-27T00:16:27.123Z,414.40
2022-11-27T00:18:54.897Z,455.60
2022-11-27T00:21:29.258Z,355.60
2022-11-27T00:24:00.047Z,325.50
2022-11-27T00:26:33.094Z,443.00
2022-11-27T00:29:03.861Z,456.40
2022-11-27T00:31:33.266Z,290.20
2022-11-27T00:34:05.765Z,383.70
2022-11-27T00:36:34.918Z,216.20
2022-11-27T00:39:03.491Z,457.20
2022-11-27T00:41:31.586Z,239.60
2022-11-27T00:43:59.391Z,373.40
2022-11-27T00:46:30.460Z,367.40
2022-11-27T00:49:00.339Z,324.70
2022-11-27T00:51:29.715Z,382.10
2022-11-27T00:53:57.607Z,318.90
2022-11-27T00:56:31.095Z,269.90
2022-11-27T00:58:59.716Z,290.80
2022-11-27T01:01:31.059Z,249.60
2022-11-27T01:04:00.329Z,238.90
2022-11-27T01:06:29.320Z,244.30
2022-11-27T01:08:58.412Z,237.60
2022-11-27T01:11:30.028Z,256.60
2022-11-27T01:14:02.023Z,341.10
2022-11-27T01:16:31.412Z,276.40
2022-11-27T01:19:01.537Z,204.60
2022-11-27T01:21:32.598Z,225.00
2022-11-27T01:24:01.481Z,219.40
2022-11-27T01:26:29.702Z,229.50
2022-11-27T01:28:58.190Z,216.10
2022-11-27T01:31:29.801Z,216.80
2022-11-27T01:34:00.375Z,173.80
2022-11-27T01:36:29.109Z,199.20
2022-11-27T01:38:57.199Z,199.00
2022-11-27T01:41:42.263Z,191.00
2022-11-27T01:44:25.888Z,178.70
2022-11-27T01:46:57.588Z,195.60
2022-11-27T01:49:34.592Z,182.50
2022-11-27T01:52:15.013Z,191.90
2022-11-27T01:54:53.386Z,176.80
2022-11-27T01:57:24.885Z,188.30
2022-11-27T01:59:56.933Z,158.50
2022-11-27T02:02:24.630Z,157.60
2022-11-27T02:04:54.702Z,156.70
2022-11-27T02:07:22.596Z,171.50
2022-11-27T02:09:50.837Z,135.10
2022-11-27T02:12:30.575Z,155.20
2022-11-27T02:15:08.610Z,152.80
2022-11-27T02:17:55.800Z,143.70
2022-11-27T02:20:45.628Z,151.80
2022-11-27T02:23:45.190Z,144.70
2022-11-27T02:26:27.744Z,138.10
2022-11-27T02:29:01.376Z,161.70
2022-11-27T02:32:00.907Z,135.20
2022-11-27T02:34:57.620Z,126.50
2022-11-27T02:37:47.352Z,131.00
2022-11-27T02:40:31.331Z,155.20
2022-11-27T02:43:10.367Z,136.50
2022-11-27T02:45:43.191Z,143.50
2022-11-27T02:48:14.051Z,128.90
2022-11-27T02:50:44.149Z,121.50
2022-11-27T02:53:17.964Z,139.00
2022-11-27T02:55:48.498Z,132.50
2022-11-27T02:58:21.191Z,128.80
2022-11-27T03:00:50.706Z,143.80
2022-11-27T03:03:22.662Z,132.90
2022-11-27T03:05:54.929Z,140.70
2022-11-27T03:08:30.857Z,139.00
2022-11-27T03:11:05.050Z,137.20
2022-11-27T03:13:39.811Z,142.00
2022-11-27T03:16:40.440Z,153.70
2022-11-27T03:19:33.755Z,124.30
2022-11-27T03:22:03.513Z,119.10
2022-11-27T03:24:34.051Z,133.40
2022-11-27T03:27:03.878Z,143.50
2022-11-27T03:29:38.416Z,140.10
2022-11-27T03:32:07.107Z,140.40
2022-11-27T03:34:36.495Z,138.80
2022-11-27T03:37:04.675Z,133.20
2022-11-27T03:39:33.211Z,142.90
2022-11-27T03:42:24.853Z,131.60
2022-11-27T03:45:09.545Z,134.40
2022-11-27T03:47:51.696Z,135.10
2022-11-27T03:50:51.426Z,156.10
2022-11-27T03:53:38.979Z,141.10
2022-11-27T03:56:18.545Z,138.50
2022-11-27T03:58:52.059Z,153.50
2022-11-27T04:03:50.408Z,141.10
2022-11-27T04:06:18.170Z,133.90
2022-11-27T04:08:47.385Z,142.70
2022-11-27T04:11:15.583Z,148.00
2022-11-27T04:13:43.217Z,143.90
2022-11-27T04:16:10.847Z,156.10
2022-11-27T04:18:38.524Z,141.30
2022-11-27T04:21:06.234Z,145.60
2022-11-27T04:23:33.859Z,142.20
2022-11-27T04:26:01.430Z,135.10
2022-11-27T04:28:28.989Z,142.30
2022-11-27T04:30:57.023Z,141.80
2022-11-27T04:33:24.775Z,142.10
2022-11-27T04:35:52.424Z,131.70
2022-11-27T04:38:21.742Z,146.00
2022-11-27T04:40:52.567Z,138.30
2022-11-27T04:43:20.254Z,124.50
2022-11-27T04:45:47.865Z,136.10
2022-11-27T04:48:15.460Z,125.00
2022-11-27T04:50:43.139Z,144.70
2022-11-27T04:53:10.757Z,121.90
2022-11-27T04:55:38.354Z,134.20
2022-11-27T04:58:05.993Z,137.80
2022-11-27T05:00:33.727Z,129.70
2022-11-27T05:03:01.441Z,131.20
2022-11-27T05:05:29.167Z,117.10
2022-11-27T05:07:56.863Z,115.70
2022-11-27T05:10:24.714Z,107.60
2022-11-27T05:12:52.309Z,128.20
2022-11-27T05:15:19.894Z,131.90
2022-11-27T05:17:47.503Z,118.00
2022-11-27T05:20:15.143Z,124.90
2022-11-27T05:22:44.170Z,109.80
2022-11-27T05:25:11.789Z,114.00
2022-11-27T05:27:39.415Z,115.60
2022-11-27T05:30:07.883Z,130.70
2022-11-27T05:32:35.499Z,162.00
2022-11-27T05:35:03.899Z,150.60
2022-11-27T05:37:31.544Z,156.20
2022-11-27T05:39:59.145Z,135.50
2022-11-27T05:42:26.763Z,141.50
2022-11-27T05:44:58.286Z,134.70
2022-11-27T05:47:26.426Z,132.40
2022-11-27T05:49:54.097Z,111.00
2022-11-27T05:52:21.678Z,115.30
2022-11-27T05:54:50.464Z,107.10
2022-11-27T05:57:18.044Z,118.30
2022-11-27T05:59:45.657Z,121.90
2022-11-27T06:02:20.011Z,116.60
2022-11-27T06:04:49.487Z,110.30
2022-11-27T06:07:17.625Z,118.50
2022-11-27T06:09:45.611Z,115.60
2022-11-27T06:12:13.299Z,129.10
2022-11-27T06:14:41.202Z,125.10
2022-11-27T06:17:09.050Z,123.80
2022-11-27T06:19:36.617Z,124.00
2022-11-27T06:22:04.314Z,120.70
2022-11-27T06:24:31.917Z,126.60
2022-11-27T06:26:59.518Z,150.20
2022-11-27T06:29:27.087Z,136.80
2022-11-27T06:31:54.824Z,140.80
2022-11-27T06:34:22.661Z,145.30
2022-11-27T06:36:51.155Z,144.40
2022-11-27T06:39:18.768Z,128.20
2022-11-27T06:41:46.334Z,144.80
2022-11-27T06:44:14.001Z,124.00
2022-11-27T06:46:41.784Z,131.80
2022-11-27T06:49:10.009Z,120.90
2022-11-27T06:51:39.058Z,135.80
2022-11-27T06:54:06.695Z,149.50
2022-11-27T06:56:34.344Z,132.30
2022-11-27T06:59:02.250Z,126.00
2022-11-27T07:01:31.639Z,116.30
2022-11-27T07:04:00.060Z,126.20
2022-11-27T07:06:28.633Z,126.80
2022-11-27T07:08:56.783Z,126.20
2022-11-27T07:11:27.317Z,134.60
2022-11-27T07:13:57.489Z,128.70
2022-11-27T07:16:26.917Z,127.70
2022-11-27T07:19:00.379Z,130.60
2022-11-27T07:23:56.867Z,124.50
2022-11-27T07:26:28.008Z,121.30
2022-11-27T07:28:56.499Z,130.60
2022-11-27T07:31:28.339Z,121.20
2022-11-27T07:33:56.624Z,127.90
2022-11-27T07:36:30.277Z,129.70
2022-11-27T07:41:32.327Z,113.80
2022-11-27T07:44:01.619Z,116.30
2022-11-27T07:46:30.473Z,126.50
2022-11-27T07:49:00.444Z,115.20
2022-11-27T07:51:28.320Z,111.90
2022-11-27T07:53:55.992Z,116.70
2022-11-27T07:56:23.654Z,123.30
2022-11-27T07:58:51.261Z,132.80
2022-11-27T08:01:19.855Z,135.90
2022-11-27T08:03:47.521Z,112.40
2022-11-27T08:06:24.895Z,124.30
2022-11-27T08:08:55.836Z,104.40
2022-11-27T08:11:26.481Z,123.10
2022-11-27T08:14:02.658Z,107.80
2022-11-27T08:16:31.883Z,121.30
2022-11-27T08:18:59.574Z,107.80
2022-11-27T08:21:28.517Z,153.20
2022-11-27T08:23:58.152Z,125.40
2022-11-27T08:26:27.746Z,190.90
2022-11-27T08:28:56.353Z,113.00
2022-11-27T08:31:24.874Z,126.80
2022-11-27T08:33:52.904Z,118.10
2022-11-27T08:36:20.912Z,136.70
2022-11-27T08:38:48.494Z,119.90
2022-11-27T08:41:16.168Z,133.40
2022-11-27T08:43:43.976Z,125.40
2022-11-27T08:46:11.811Z,132.00
2022-11-27T08:48:41.294Z,112.80
2022-11-27T08:51:12.403Z,130.50
2022-11-27T08:53:40.174Z,125.60
2022-11-27T08:56:22.266Z,109.60
2022-11-27T08:58:50.344Z,128.00
2022-11-27T09:01:21.362Z,115.60
2022-11-27T09:03:49.447Z,115.70
2022-11-27T09:06:21.451Z,131.60
2022-11-27T09:08:49.789Z,132.50
2022-11-27T09:11:20.240Z,120.90
2022-11-27T09:13:48.898Z,108.70
2022-11-27T09:16:21.338Z,163.10
2022-11-27T09:18:51.556Z,111.50
2022-11-27T09:21:21.822Z,143.70
2022-11-27T09:23:56.249Z,146.20
2022-11-27T09:26:25.466Z,130.60
2022-11-27T09:28:54.409Z,165.80
2022-11-27T09:31:22.944Z,116.20
2022-11-27T09:33:50.783Z,118.40
2022-11-27T09:36:21.729Z,143.90
2022-11-27T09:38:49.856Z,112.90
2022-11-27T09:41:51.588Z,116.50
2022-11-27T09:44:31.264Z,134.10
2022-11-27T09:47:06.649Z,143.10
2022-11-27T09:49:51.816Z,159.70
2022-11-27T09:52:27.663Z,166.20
2022-11-27T09:55:31.464Z,145.50
2022-11-27T09:58:05.802Z,144.70
2022-11-27T10:00:33.627Z,120.30
2022-11-27T10:03:01.400Z,108.40
2022-11-27T10:05:43.225Z,109.50
2022-11-27T10:08:14.015Z,119.60
2022-11-27T10:11:09.172Z,112.60
2022-11-27T10:13:52.834Z,119.40
2022-11-27T10:16:31.522Z,125.30
2022-11-27T10:19:06.039Z,134.90
2022-11-27T10:21:52.325Z,118.90
2022-11-27T10:24:26.084Z,110.30
2022-11-27T10:26:58.320Z,124.10
2022-11-27T10:29:47.172Z,128.60
2022-11-27T10:32:53.004Z,113.80
2022-11-27T10:35:25.431Z,131.60
2022-11-27T10:38:03.709Z,133.20
2022-11-27T10:40:43.920Z,138.00
2022-11-27T10:43:28.468Z,111.70
2022-11-27T10:46:04.940Z,119.90
2022-11-27T10:48:33.465Z,120.90
2022-11-27T10:51:01.565Z,121.70
2022-11-27T10:53:35.392Z,114.10
2022-11-27T10:56:22.271Z,113.40
2022-11-27T10:59:09.313Z,121.50
2022-11-27T11:01:49.001Z,117.90
2022-11-27T11:04:37.566Z,107.40
2022-11-27T11:07:29.187Z,120.80
2022-11-27T11:09:57.030Z,121.00
2022-11-27T11:12:24.607Z,124.10
2022-11-27T11:14:57.518Z,111.60
2022-11-27T11:17:40.715Z,119.30
2022-11-27T11:20:21.669Z,118.80
2022-11-27T11:22:49.862Z,104.70
2022-11-27T11:25:19.993Z,106.70
2022-11-27T11:27:50.314Z,95.60
2022-11-27T11:30:29.044Z,96.00
2022-11-27T11:33:02.162Z,105.40
2022-11-27T11:35:35.861Z,100.30
2022-11-27T11:40:36.184Z,99.90
2022-11-27T11:43:09.864Z,100.50
2022-11-27T11:45:46.657Z,91.80
2022-11-27T11:48:30.234Z,106.20
2022-11-27T11:51:03.924Z,104.80
2022-11-27T11:53:45.413Z,98.40
2022-11-27T11:56:28.989Z,87.00
2022-11-27T11:59:04.031Z,91.20
2022-11-27T12:02:01.748Z,100.80
2022-11-27T12:05:04.305Z,99.30
2022-11-27T12:07:52.207Z,95.60
2022-11-27T12:10:40.783Z,98.50
2022-11-27T12:13:30.355Z,92.90
2022-11-27T12:16:14.333Z,89.70
2022-11-27T12:18:57.924Z,97.60
2022-11-27T12:21:41.872Z,98.50
2022-11-27T12:24:17.614Z,96.30
2022-11-27T12:27:12.677Z,98.90
2022-11-27T12:30:05.933Z,109.20
2022-11-27T12:33:00.594Z,97.90
2022-11-27T12:35:38.585Z,91.50
2022-11-27T12:38:29.232Z,81.20
2022-11-27T12:41:13.638Z,93.90
2022-11-27T12:43:50.139Z,98.00
2022-11-27T12:46:27.850Z,91.50
2022-11-27T12:49:11.462Z,111.20
2022-11-27T12:51:57.533Z,93.70
2022-11-27T12:54:35.336Z,94.50
2022-11-27T12:57:11.683Z,105.40
2022-11-27T12:59:59.760Z,103.00
2022-11-27T13:02:43.462Z,99.20
2022-11-27T13:07:48.351Z,83.30
2022-11-27T13:10:24.157Z,86.30
2022-11-27T13:13:02.518Z,79.50
2022-11-27T13:15:52.275Z,89.70
2022-11-27T13:18:38.652Z,100.30
2022-11-27T13:21:14.947Z,125.00
2022-11-27T13:23:42.904Z,106.60
2022-11-27T13:26:26.002Z,104.00
2022-11-27T13:29:05.246Z,97.40
2022-11-27T13:31:39.052Z,96.40
2022-11-27T13:34:10.115Z,93.50
2022-11-27T13:36:44.750Z,102.20
2022-11-27T13:39:36.835Z,105.80
2022-11-27T13:42:22.278Z,112.70
2022-11-27T13:44:56.779Z,106.70
2022-11-27T13:47:28.623Z,107.40
2022-11-27T13:50:16.478Z,95.50
2022-11-27T13:53:04.840Z,106.40
2022-11-27T13:55:53.871Z,108.30
2022-11-27T13:58:38.897Z,117.30
2022-11-27T14:01:17.271Z,144.40
2022-11-27T14:03:45.302Z,114.80
2022-11-27T14:06:30.996Z,106.40
2022-11-27T14:09:01.456Z,97.50
2022-11-27T14:11:51.068Z,102.70
2022-11-27T14:14:24.907Z,116.70
2022-11-27T14:17:26.624Z,123.80
2022-11-27T14:20:06.327Z,110.50
2022-11-27T14:25:44.252Z,114.80
2022-11-27T14:28:27.216Z,124.10
2022-11-27T14:30:58.083Z,115.60
2022-11-27T14:33:28.627Z,106.30
2022-11-27T14:35:59.212Z,111.00
2022-11-27T14:38:28.916Z,116.60
2022-11-27T14:41:18.352Z,113.70
2022-11-27T14:43:46.098Z,114.30
2022-11-27T14:46:21.948Z,121.40
2022-11-27T14:48:55.476Z,130.60
2022-11-27T14:51:35.112Z,126.30
2022-11-27T14:54:10.538Z,115.50
2022-11-27T14:56:43.228Z,112.30
2022-11-27T14:59:17.331Z,104.80
2022-11-27T15:01:48.808Z,123.50
2022-11-27T15:04:40.933Z,129.10
2022-11-27T15:07:30.199Z,136.00
2022-11-27T15:10:00.963Z,153.20
2022-11-27T15:12:34.816Z,171.80
2022-11-27T15:15:09.991Z,156.00
2022-11-27T15:17:39.856Z,169.30
2022-11-27T15:20:18.095Z,175.20
2022-11-27T15:22:51.696Z,184.00
2022-11-27T15:28:06.500Z,164.70
2022-11-27T15:30:44.464Z,170.10
2022-11-27T15:33:32.351Z,157.30
2022-11-27T15:36:17.046Z,161.60
2022-11-27T15:38:45.798Z,132.70
2022-11-27T15:41:20.884Z,135.90
2022-11-27T15:43:48.607Z,147.00
2022-11-27T15:46:25.041Z,135.70
2022-11-27T15:48:53.200Z,136.10
2022-11-27T15:51:20.908Z,140.60
2022-11-27T15:53:51.422Z,147.80
2022-11-27T15:56:19.368Z,129.70
2022-11-27T15:58:47.018Z,113.30
2022-11-27T16:01:14.730Z,132.20
2022-11-27T16:03:42.383Z,118.90
2022-11-27T16:06:10.052Z,123.40
2022-11-27T16:08:37.679Z,118.40
2022-11-27T16:11:08.912Z,100.60
2022-11-27T16:13:37.402Z,99.40
2022-11-27T16:16:08.160Z,104.10
2022-11-27T16:18:36.630Z,78.70
2022-11-27T16:21:06.805Z,75.90
2022-11-27T16:23:37.695Z,68.50
2022-11-27T16:26:05.780Z,77.50
2022-11-27T16:28:33.854Z,81.70
2022-11-27T16:31:03.663Z,81.50
2022-11-27T16:33:32.506Z,83.00
2022-11-27T16:36:07.518Z,81.30
2022-11-27T16:38:35.278Z,85.50
2022-11-27T16:41:06.219Z,67.60
2022-11-27T16:43:37.041Z,68.30
2022-11-27T16:46:07.209Z,82.30
2022-11-27T16:48:36.799Z,78.90
2022-11-27T16:51:22.678Z,87.80
2022-11-27T16:53:52.820Z,75.50
2022-11-27T16:56:24.149Z,82.30
2022-11-27T16:58:59.404Z,82.40
2022-11-27T17:01:34.774Z,89.70
2022-11-27T17:04:07.053Z,80.60
2022-11-27T17:06:35.927Z,70.20
2022-11-27T17:09:05.849Z,73.70
2022-11-27T17:11:35.695Z,89.30
2022-11-27T17:14:07.715Z,78.40
2022-11-27T17:16:39.483Z,79.30
2022-11-27T17:19:07.305Z,78.50
2022-11-27T17:21:35.491Z,80.60
2022-11-27T17:24:14.283Z,69.50
2022-11-27T17:26:46.354Z,70.90
2022-11-27T17:29:17.362Z,70.50
2022-11-27T17:31:45.250Z,79.50
2022-11-27T17:34:16.384Z,86.50
2022-11-27T17:36:45.409Z,74.60
2022-11-27T17:39:15.146Z,90.80
2022-11-27T17:41:46.627Z,69.00
2022-11-27T17:44:14.649Z,78.40
2022-11-27T17:46:47.990Z,115.90
2022-11-27T17:49:16.216Z,260.50
2022-11-27T17:51:45.618Z,171.70
2022-11-27T17:54:14.883Z,76.00
2022-11-27T17:56:42.648Z,92.80
2022-11-27T17:59:10.699Z,192.60
2022-11-27T18:01:39.501Z,211.80
2022-11-27T18:04:10.305Z,122.20
2022-11-27T18:06:38.476Z,104.50
2022-11-27T18:09:06.224Z,83.80
2022-11-27T18:11:33.985Z,84.30
2022-11-27T18:14:02.011Z,84.80
2022-11-27T18:16:34.065Z,88.40
2022-11-27T18:19:05.260Z,80.60
2022-11-27T18:21:33.254Z,68.70
2022-11-27T18:27:07.626Z,67.90
2022-11-27T18:29:39.336Z,86.50
2022-11-27T18:32:08.445Z,82.40
2022-11-27T18:34:36.377Z,87.80
2022-11-27T18:37:05.157Z,74.60
2022-11-27T18:39:34.177Z,61.30
2022-11-27T18:42:03.314Z,73.10
2022-11-27T18:44:31.508Z,76.60
2022-11-27T18:46:59.498Z,71.30
2022-11-27T18:49:27.339Z,67.50
2022-11-27T18:51:55.011Z,72.90
2022-11-27T18:54:22.800Z,80.90
2022-11-27T18:56:51.033Z,90.80
2022-11-27T18:59:19.301Z,77.90
2022-11-27T19:01:47.104Z,76.70
2022-11-27T19:04:15.045Z,129.90
2022-11-27T19:06:44.103Z,87.60
2022-11-27T19:09:12.891Z,83.90
2022-11-27T19:11:41.744Z,79.30
2022-11-27T19:14:10.439Z,79.30
2022-11-27T19:16:45.219Z,81.90
2022-11-27T19:22:07.867Z,73.10
2022-11-27T19:24:37.373Z,79.40
2022-11-27T19:27:05.009Z,75.30
2022-11-27T19:29:33.389Z,82.40
2022-11-27T19:32:01.694Z,73.80
2022-11-27T19:34:29.460Z,77.90
2022-11-27T19:36:58.427Z,61.90
2022-11-27T19:39:27.749Z,79.40
2022-11-27T19:41:57.694Z,80.30
2022-11-27T19:44:25.735Z,74.20
2022-11-27T19:46:53.745Z,76.80
2022-11-27T19:49:22.725Z,78.10
2022-11-27T19:51:50.382Z,80.50
2022-11-27T19:54:20.488Z,87.30
2022-11-27T19:56:48.199Z,90.20
2022-11-27T19:59:15.909Z,76.40
2022-11-27T20:01:43.616Z,85.50
2022-11-27T20:04:12.142Z,92.10
2022-11-27T20:06:40.947Z,89.30
2022-11-27T20:09:08.907Z,123.90
2022-11-27T20:11:37.391Z,121.60
2022-11-27T20:14:06.949Z,99.20
2022-11-27T20:16:36.334Z,105.30
2022-11-27T20:19:05.978Z,145.60
2022-11-27T20:21:36.648Z,73.70
2022-11-27T20:24:04.687Z,89.10
2022-11-27T20:26:37.103Z,91.40
2022-11-27T20:29:07.749Z,95.60
2022-11-27T20:31:37.772Z,141.10
2022-11-27T20:34:07.116Z,156.50
2022-11-27T20:36:38.366Z,124.80
2022-11-27T20:39:06.053Z,118.00
2022-11-27T20:41:34.560Z,97.50
2022-11-27T20:44:04.652Z,239.20
2022-11-27T20:46:33.149Z,140.20
2022-11-27T20:49:02.089Z,114.00
2022-11-27T20:51:34.097Z,139.40
2022-11-27T20:54:10.536Z,126.10
2022-11-27T20:56:41.063Z,101.40
2022-11-27T20:59:09.726Z,136.10
2022-11-27T21:01:38.965Z,120.50
2022-11-27T21:04:19.096Z,109.30
2022-11-27T21:06:47.627Z,89.40
2022-11-27T21:09:16.767Z,82.70
2022-11-27T21:11:45.092Z,99.50
2022-11-27T21:14:14.780Z,97.30
2022-11-27T21:16:48.523Z,88.30
2022-11-27T21:19:25.273Z,93.50
2022-11-27T21:21:54.597Z,81.60
2022-11-27T21:24:27.382Z,95.60
2022-11-27T21:26:56.012Z,79.20
2022-11-27T21:29:25.866Z,98.80
2022-11-27T21:31:55.598Z,99.50
2022-11-27T21:34:25.588Z,104.30
2022-11-27T21:36:53.845Z,84.40
2022-11-27T21:39:21.585Z,91.90
2022-11-27T21:41:51.383Z,79.80
2022-11-27T21:44:21.803Z,76.30
2022-11-27T21:46:50.751Z,67.20
2022-11-27T21:49:20.319Z,74.70
2022-11-27T21:51:52.541Z,70.40
2022-11-27T21:54:20.670Z,81.30
2022-11-27T21:56:51.438Z,89.20
2022-11-27T21:59:19.205Z,90.30
2022-11-27T22:01:47.534Z,77.30
2022-11-27T22:04:15.348Z,78.80
2022-11-27T22:06:45.141Z,78.80
2022-11-27T22:09:15.747Z,71.00
2022-11-27T22:11:45.820Z,69.30
2022-11-27T22:14:17.367Z,66.80
2022-11-27T22:16:46.931Z,70.00
2022-11-27T22:19:16.641Z,72.10
2022-11-27T22:21:44.744Z,72.30
2022-11-27T22:24:18.518Z,74.00
2022-11-27T22:26:48.261Z,67.50
2022-11-27T22:29:16.376Z,69.30
2022-11-27T22:31:44.802Z,77.30
2022-11-27T22:34:12.764Z,76.90
2022-11-27T22:36:40.705Z,76.70
2022-11-27T22:39:09.195Z,85.60
2022-11-27T22:41:39.453Z,77.40
2022-11-27T22:44:09.118Z,73.70
2022-11-27T22:46:37.127Z,75.50
2022-11-27T22:49:06.575Z,90.30
2022-11-27T22:51:35.992Z,79.70
2022-11-27T22:54:05.577Z,83.80
2022-11-27T22:56:34.444Z,94.40
2022-11-27T22:59:31.854Z,79.70
2022-11-27T23:01:53.985Z,76.50
2022-11-27T23:04:21.758Z,67.20
2022-11-27T23:06:49.445Z,64.50
2022-11-27T23:09:18.874Z,77.90
2022-11-27T23:11:46.838Z,76.70
2022-11-27T23:14:14.797Z,76.50
2022-11-27T23:16:42.754Z,68.70
2022-11-27T23:19:11.443Z,72.60
2022-11-27T23:21:39.765Z,65.30
2022-11-27T23:24:11.232Z,69.50
2022-11-27T23:26:39.043Z,61.80
2022-11-27T23:29:07.369Z,61.30
2022-11-27T23:31:36.230Z,54.50
2022-11-27T23:34:07.937Z,52.30
2022-11-27T23:36:36.242Z,48.30
2022-11-27T23:39:08.403Z,49.70
2022-11-27T23:41:36.085Z,49.70
2022-11-27T23:44:03.770Z,59.40
2022-11-27T23:46:35.186Z,54.00
2022-11-27T23:49:02.939Z,51.70
2022-11-27T23:51:32.195Z,56.00
2022-11-27T23:54:00.976Z,47.70
2022-11-27T23:56:32.379Z,51.60
2022-11-27T23:59:00.816Z,55.80
